Time;durP1;ratioP1;P1;durP2;ratioP2;P2;SDS_P1;SDS_P2;PMS_P1;PMS_P2;Temp;Humidity;BMP_temperature;BMP_pressure;BME280_temperature;BME280_humidity;BME280_pressure;Samples;Min_cycle;Max_cycle;Signal;HPM_P1;HPM_P2
2023/03/02 00:01:18;;;;;;;6.13;5.05;;;;;;;5.42;70.09;94168.97;5051897;28;20116;-79
2023/03/02 00:03:43;;;;;;;9.00;5.95;;;;;;;5.53;69.18;94160.72;5046060;28;20461;-79
2023/03/02 00:06:09;;;;;;;6.55;4.93;;;;;;;5.69;68.20;94164.06;5043029;28;20037;-79
2023/03/02 00:08:36;;;;;;;6.03;4.40;;;;;;;5.80;67.83;94165.56;5045755;28;20044;-81
2023/03/02 00:11:01;;;;;;;7.68;5.43;;;;;;;5.71;67.40;94151.38;5045284;28;20040;-75
2023/03/02 00:13:31;;;;;;;6.82;5.65;;;;;;;5.89;67.18;94163.91;5045431;28;20040;-80
2023/03/02 00:15:57;;;;;;;7.32;4.82;;;;;;;5.76;66.91;94135.50;5044493;28;20047;-78
2023/03/02 00:18:22;;;;;;;6.07;4.85;;;;;;;5.90;66.62;94160.22;5045085;28;20062;-78
2023/03/02 00:20:47;;;;;;;12.68;6.68;;;;;;;5.77;66.78;94137.09;5046782;28;20633;-78
2023/03/02 00:23:14;;;;;;;7.15;4.63;;;;;;;5.71;66.81;94135.53;5048042;28;20045;-79
2023/03/02 00:25:39;;;;;;;5.50;4.68;;;;;;;5.71;66.96;94135.53;5059353;28;20056;-77
2023/03/02 00:28:05;;;;;;;6.28;4.20;;;;;;;5.66;66.29;94090.72;5060527;28;20143;-78
2023/03/02 00:30:30;;;;;;;6.55;4.50;;;;;;;6.03;65.84;94132.41;5050423;28;20035;-79
2023/03/02 00:32:57;;;;;;;6.10;5.13;;;;;;;5.34;67.02;94109.66;5048880;28;20033;-79
2023/03/02 00:35:24;;;;;;;5.53;4.00;;;;;;;5.28;67.32;94086.22;5043341;28;20064;-78
2023/03/02 00:37:50;;;;;;;6.40;4.70;;;;;;;5.55;67.98;94134.06;5046002;28;20560;-79
2023/03/02 00:40:15;;;;;;;5.55;4.03;;;;;;;5.13;68.15;94106.34;5044772;28;20021;-79
2023/03/02 00:42:40;;;;;;;4.90;3.90;;;;;;;5.19;68.11;94108.97;5044922;28;20033;-79
2023/03/02 00:45:06;;;;;;;5.95;4.20;;;;;;;4.53;70.59;94073.13;5045195;28;20463;-78
2023/03/02 00:47:34;;;;;;;6.25;3.55;;;;;;;4.23;72.33;94118.72;5053879;28;20040;-79
2023/03/02 00:50:00;;;;;;;4.18;3.47;;;;;;;3.76;74.13;94091.91;5045965;28;20055;-77
2023/03/02 00:52:25;;;;;;;4.50;3.70;;;;;;;3.72;75.13;94117.19;5045257;28;20041;-79
2023/03/02 00:54:50;;;;;;;6.18;4.13;;;;;;;3.76;75.43;94105.06;5042956;28;20029;-78
2023/03/02 00:57:16;;;;;;;4.45;3.45;;;;;;;4.45;73.23;94112.41;5041884;28;20059;-78
2023/03/02 00:59:41;;;;;;;6.40;3.90;;;;;;;4.33;72.86;94115.31;5043955;28;20103;-78
2023/03/02 01:02:06;;;;;;;4.78;3.95;;;;;;;4.54;71.75;94100.25;5044259;28;20033;-79
2023/03/02 01:04:43;;;;;;;2.85;2.55;;;;;;;3.98;73.18;94092.44;5047276;28;20037;-79
2023/03/02 01:07:11;;;;;;;4.47;3.45;;;;;;;4.51;72.86;94108.69;5058482;28;20083;-77
2023/03/02 01:09:39;;;;;;;3.80;3.15;;;;;;;4.25;72.51;94103.47;5041983;28;20037;-78
2023/03/02 01:12:09;;;;;;;4.03;3.20;;;;;;;4.02;73.59;94069.00;5049365;28;20041;-78
2023/03/02 01:14:38;;;;;;;5.65;3.22;;;;;;;4.35;72.27;94081.63;5045943;28;20156;-79
2023/03/02 01:17:05;;;;;;;4.53;3.20;;;;;;;4.09;72.89;94067.69;5044137;28;20116;-78
2023/03/02 01:19:31;;;;;;;6.80;5.35;;;;;;;3.75;74.44;94098.22;5042338;28;20384;-79
2023/03/02 01:21:57;;;;;;;8.38;5.85;;;;;;;3.60;74.78;94064.03;5044901;28;20405;-79
2023/03/02 01:24:22;;;;;;;10.55;6.88;;;;;;;3.04;77.35;94066.59;5045177;28;20038;-79
2023/03/02 01:26:48;;;;;;;9.35;5.60;;;;;;;3.15;78.04;94073.44;5047985;28;20120;-78
2023/03/02 01:29:13;;;;;;;8.40;5.45;;;;;;;3.34;77.58;94087.66;5060139;28;20048;-78
2023/03/02 01:31:41;;;;;;;4.70;4.05;;;;;;;3.28;77.56;94109.75;5063805;28;20033;-78
2023/03/02 01:34:07;;;;;;;6.47;4.65;;;;;;;3.50;77.77;94100.84;5045912;28;20035;-78
2023/03/02 01:36:33;;;;;;;7.18;5.72;;;;;;;3.82;76.06;94088.22;5046478;28;20046;-79
2023/03/02 01:38:58;;;;;;;13.23;8.77;;;;;;;4.12;74.70;94087.41;5042302;28;20034;-77
2023/03/02 01:41:23;;;;;;;8.73;6.05;;;;;;;4.26;73.70;94073.41;5053239;28;20037;-78
2023/03/02 01:43:49;;;;;;;5.65;3.40;;;;;;;3.58;75.61;94071.38;5043734;28;20773;-79
2023/03/02 01:46:18;;;;;;;3.35;3.03;;;;;;;4.22;74.44;94082.91;5043697;28;20155;-79
2023/03/02 01:48:45;;;;;;;5.03;3.17;;;;;;;4.55;72.37;94064.97;5042867;28;20030;-77
2023/03/02 01:51:15;;;;;;;5.43;2.75;;;;;;;4.74;71.48;94079.13;5042770;28;20044;-79
2023/03/02 01:53:45;;;;;;;3.38;2.88;;;;;;;4.89;71.03;94076.41;5043306;28;20255;-78
2023/03/02 01:56:14;;;;;;;2.50;2.30;;;;;;;4.44;70.92;94031.81;5043131;28;20047;-78
2023/03/02 01:58:40;;;;;;;3.17;2.60;;;;;;;4.55;70.92;94071.00;5042406;28;20064;-79
2023/03/02 02:01:14;;;;;;;2.90;2.60;;;;;;;4.14;73.08;94070.31;5043699;28;20058;-77
2023/03/02 02:03:42;;;;;;;3.58;2.60;;;;;;;4.52;71.57;94054.94;5044033;28;20034;-78
2023/03/02 02:06:20;;;;;;;3.75;2.42;;;;;;;4.79;70.42;94065.91;5047872;28;20052;-78
2023/03/02 02:08:47;;;;;;;2.50;2.30;;;;;;;4.44;71.69;94068.69;5042525;28;20041;-77
2023/03/02 02:11:12;;;;;;;4.25;3.00;;;;;;;4.12;72.84;94050.53;5043307;28;20038;-79
2023/03/02 02:13:39;;;;;;;3.22;2.88;;;;;;;4.23;72.71;94066.06;5048294;28;20469;-78
2023/03/02 02:16:05;;;;;;;3.78;2.85;;;;;;;4.55;71.95;94070.22;5045505;28;20025;-79
2023/03/02 02:18:31;;;;;;;3.63;2.50;;;;;;;4.28;72.16;94045.00;5043013;28;20043;-79
2023/03/02 02:20:57;;;;;;;5.60;3.28;;;;;;;4.68;71.33;94069.66;5044512;28;20052;-79
2023/03/02 02:23:43;;;;;;;3.35;2.60;;;;;;;4.85;69.50;94072.72;5042111;28;20033;-79
2023/03/02 02:26:11;;;;;;;;;;;;;;;5.00;69.41;94079.78;5043666;28;20094;-79
2023/03/02 02:28:41;;;;;;;5.95;2.63;;;;;;;5.10;69.16;94077.88;5048494;28;20200;-78
2023/03/02 02:31:32;;;;;;;6.20;4.95;;;;;;;5.10;68.90;94071.81;5059081;28;20041;-77
2023/03/02 02:34:09;;;;;;;2.80;2.47;;;;;;;4.69;69.52;94074.66;5061976;28;20090;-79
2023/03/02 02:36:40;;;;;;;4.10;2.50;;;;;;;3.97;73.08;94080.31;5053285;28;20056;-77
2023/03/02 02:39:13;;;;;;;2.95;2.33;;;;;;;4.19;73.43;94072.13;5050413;28;21195;-79
2023/03/02 02:41:39;;;;;;;3.13;2.25;;;;;;;4.27;73.17;94077.63;5047670;28;20038;-79
2023/03/02 02:44:05;;;;;;;2.42;2.20;;;;;;;3.65;74.34;94071.91;5049127;28;20041;-79
2023/03/02 02:46:31;;;;;;;6.88;3.40;;;;;;;2.96;77.70;94062.63;5048942;28;20030;-79
2023/03/02 02:48:57;;;;;;;3.30;2.80;;;;;;;2.54;79.13;94046.22;5051294;28;20021;-78
2023/03/02 02:51:27;;;;;;;3.53;2.75;;;;;;;2.58;79.71;94072.75;5052490;28;20036;-78
2023/03/02 02:54:00;;;;;;;3.45;2.72;;;;;;;2.50;80.25;94056.44;5045723;28;20075;-79
2023/03/02 02:56:29;;;;;;;3.83;3.00;;;;;;;2.37;80.64;94051.66;5045532;28;20041;-78
2023/03/02 02:59:00;;;;;;;3.83;2.97;;;;;;;2.56;81.35;94048.56;5043039;28;20114;-78
2023/03/02 03:01:26;;;;;;;3.05;2.55;;;;;;;3.20;78.99;94064.78;5062374;28;20661;-79
2023/03/02 03:03:59;;;;;;;4.20;2.78;;;;;;;3.64;76.58;94067.72;5043724;28;20033;-80
2023/03/02 03:06:37;;;;;;;3.30;2.50;;;;;;;3.38;76.15;94062.44;5044430;28;20056;-78
2023/03/02 03:09:11;;;;;;;3.10;2.58;;;;;;;3.48;76.90;94066.16;5044807;28;20409;-79
2023/03/02 03:11:40;;;;;;;4.80;3.92;;;;;;;3.13;78.02;94059.00;5045861;28;20463;-80
2023/03/02 03:14:38;;;;;;;3.20;2.65;;;;;;;3.03;77.79;94012.47;5054019;28;20037;-77
2023/03/02 03:17:11;;;;;;;3.42;3.03;;;;;;;3.40;77.28;94060.34;5035646;28;20100;-78
2023/03/02 03:19:38;;;;;;;3.28;2.80;;;;;;;3.44;76.81;94059.81;5043611;28;20100;-79
2023/03/02 03:22:04;;;;;;;3.67;3.08;;;;;;;2.62;78.75;94042.31;5047109;28;20072;-78
2023/03/02 03:24:32;;;;;;;4.78;3.53;;;;;;;2.52;81.26;94064.84;5045220;28;20075;-79
2023/03/02 03:26:58;;;;;;;3.25;2.95;;;;;;;2.44;81.43;94056.69;5048725;28;20099;-79
2023/03/02 03:29:25;;;;;;;3.95;3.00;;;;;;;2.57;81.50;94061.47;5061815;28;20036;-80
2023/03/02 03:31:53;;;;;;;3.45;2.65;;;;;;;2.99;79.82;94053.44;5047544;28;20044;-78
2023/03/02 03:34:19;;;;;;;4.63;2.75;;;;;;;3.09;78.91;94068.44;5055786;28;20069;-78
2023/03/02 03:36:44;;;;;;;4.43;2.50;;;;;;;3.14;78.12;94055.31;5065062;28;20041;-78
2023/03/02 03:39:11;;;;;;;4.28;2.80;;;;;;;3.20;78.29;94057.69;5059507;28;20102;-77
2023/03/02 03:41:37;;;;;;;3.05;2.30;;;;;;;3.48;77.41;94060.88;5051503;28;20537;-77
2023/03/02 03:44:03;;;;;;;3.65;2.30;;;;;;;3.28;76.83;94030.88;5047613;28;20128;-76
2023/03/02 03:46:29;;;;;;;3.63;2.85;;;;;;;3.07;78.88;94060.03;5048311;28;20025;-79
2023/03/02 03:48:54;;;;;;;4.88;2.63;;;;;;;3.22;78.66;94058.22;5047120;28;20041;-78
2023/03/02 03:51:20;;;;;;;3.42;2.80;;;;;;;2.98;78.57;94054.50;5047175;28;20279;-78
2023/03/02 03:53:58;;;;;;;3.63;2.70;;;;;;;3.14;78.68;94058.72;5050752;28;20055;-76
2023/03/02 03:56:32;;;;;;;3.28;2.42;;;;;;;2.79;79.57;94033.16;5052045;28;20104;-79
2023/03/02 03:59:05;;;;;;;3.65;3.05;;;;;;;3.34;78.51;94055.31;5051660;28;20037;-78
2023/03/02 04:01:37;;;;;;;4.60;2.92;;;;;;;2.71;79.67;94057.31;5045675;28;20024;-77
2023/03/02 04:04:04;;;;;;;4.32;2.67;;;;;;;3.20;79.19;94070.81;5043595;28;20117;-77
2023/03/02 04:06:29;;;;;;;3.55;2.88;;;;;;;3.24;78.29;94039.53;5045708;28;20033;-78
2023/03/02 04:08:55;;;;;;;3.72;3.08;;;;;;;3.33;77.98;94062.44;5049736;28;20290;-78
2023/03/02 04:11:20;;;;;;;3.00;2.70;;;;;;;3.39;78.25;94063.22;5046879;28;20247;-77
2023/03/02 04:13:45;;;;;;;3.17;2.33;;;;;;;3.44;77.53;94054.53;5046349;28;20051;-77
2023/03/02 04:16:11;;;;;;;3.50;3.10;;;;;;;3.44;77.64;94044.03;5046373;28;20552;-78
2023/03/02 04:18:36;;;;;;;6.30;3.10;;;;;;;3.10;78.49;94064.75;5046497;28;20052;-76
2023/03/02 04:21:02;;;;;;;4.15;3.25;;;;;;;3.01;79.50;94067.13;5044999;28;20109;-76
2023/03/02 04:23:28;;;;;;;3.05;2.75;;;;;;;2.97;80.08;94055.53;5044927;28;20028;-78
2023/03/02 04:25:53;;;;;;;4.88;3.72;;;;;;;2.73;80.47;94033.41;5047527;28;20606;-78
2023/03/02 04:28:19;;;;;;;5.45;3.58;;;;;;;2.49;81.29;94028.63;5051031;28;20014;-80
2023/03/02 04:30:44;;;;;;;5.03;3.25;;;;;;;2.58;81.60;94057.78;5051331;28;20056;-80
2023/03/02 04:33:10;;;;;;;3.75;3.45;;;;;;;2.35;81.80;94029.34;5049409;28;20029;-80
2023/03/02 04:35:35;;;;;;;4.28;3.83;;;;;;;2.31;82.44;94036.13;5046925;28;20030;-78
2023/03/02 04:38:02;;;;;;;6.53;4.18;;;;;;;2.19;82.67;94023.25;5054479;28;20303;-78
2023/03/02 04:40:28;;;;;;;5.82;3.55;;;;;;;2.20;83.76;94068.66;5060029;28;20029;-77
2023/03/02 04:42:53;;;;;;;5.25;4.53;;;;;;;2.51;83.13;94072.97;5056621;28;20485;-78
2023/03/02 04:45:18;;;;;;;4.68;4.18;;;;;;;1.85;84.96;94074.44;5046648;28;20076;-78
2023/03/02 04:47:44;;;;;;;4.70;3.88;;;;;;;1.91;85.76;94076.09;5046899;28;20625;-79
2023/03/02 04:50:13;;;;;;;5.07;4.38;;;;;;;1.92;86.22;94086.31;5045891;28;20051;-79
2023/03/02 04:52:38;;;;;;;5.57;4.35;;;;;;;1.82;85.86;94072.28;5044881;28;20560;-80
2023/03/02 04:55:04;;;;;;;5.25;4.07;;;;;;;2.01;86.31;94092.66;5046440;28;20040;-79
2023/03/02 04:57:30;;;;;;;6.10;5.50;;;;;;;2.35;85.03;94064.25;5041111;28;20033;-78
2023/03/02 04:59:55;;;;;;;6.70;4.57;;;;;;;2.44;84.00;94067.19;5041941;28;20029;-79
2023/03/02 05:02:20;;;;;;;5.57;4.53;;;;;;;2.47;83.48;94056.97;5040151;28;20060;-79
2023/03/02 05:04:46;;;;;;;5.57;4.40;;;;;;;2.37;83.99;94075.28;5043831;28;20016;-76
2023/03/02 05:07:12;;;;;;;8.55;5.63;;;;;;;2.54;83.56;94061.97;5046256;28;20029;-78
2023/03/02 05:09:38;;;;;;;7.25;4.97;;;;;;;2.57;83.47;94079.84;5047408;28;20045;-77
2023/03/02 05:12:03;;;;;;;5.72;5.13;;;;;;;2.46;83.36;94058.00;5040200;28;20044;-78
2023/03/02 05:14:29;;;;;;;5.53;4.97;;;;;;;2.50;83.18;94064.31;5041322;28;20036;-78
2023/03/02 05:16:55;;;;;;;6.47;5.03;;;;;;;2.23;83.64;94076.00;5042714;28;20105;-78
2023/03/02 05:19:20;;;;;;;7.10;5.53;;;;;;;2.14;84.80;94090.66;5041636;28;20781;-77
2023/03/02 05:21:45;;;;;;;8.02;6.20;;;;;;;1.97;85.31;94072.44;5043952;28;20041;-76
2023/03/02 05:24:12;;;;;;;9.20;6.90;;;;;;;2.09;85.29;94086.94;5043536;28;20117;-78
2023/03/02 05:26:38;;;;;;;7.47;6.10;;;;;;;2.18;85.54;94084.63;5043183;28;20045;-78
2023/03/02 05:29:03;;;;;;;8.80;6.95;;;;;;;2.23;85.40;94076.78;5047743;28;20029;-78
2023/03/02 05:31:30;;;;;;;9.27;6.22;;;;;;;2.08;85.38;94058.34;5045758;28;20583;-77
2023/03/02 05:33:56;;;;;;;11.30;8.23;;;;;;;2.13;85.38;94100.34;5046428;28;20029;-78
2023/03/02 05:36:22;;;;;;;9.82;7.03;;;;;;;2.16;86.03;94096.44;5048882;28;20052;-78
2023/03/02 05:38:47;;;;;;;10.07;8.23;;;;;;;2.11;85.86;94081.44;5045026;28;20638;-76
2023/03/02 05:41:13;;;;;;;9.10;7.93;;;;;;;2.30;85.13;94082.63;5049668;28;20398;-79
2023/03/02 05:43:39;;;;;;;9.40;6.88;;;;;;;2.37;85.04;94098.91;5058270;28;20036;-78
2023/03/02 05:46:04;;;;;;;10.18;8.30;;;;;;;2.52;84.39;94091.09;5059907;28;20049;-77
2023/03/02 05:48:31;;;;;;;10.77;8.20;;;;;;;2.47;84.90;94088.47;5054748;28;20050;-78
2023/03/02 05:50:57;;;;;;;10.20;8.38;;;;;;;2.59;83.97;94077.75;5052115;28;20040;-78
2023/03/02 05:53:23;;;;;;;11.48;8.90;;;;;;;2.96;83.06;94083.66;5042570;28;20033;-79
2023/03/02 05:55:48;;;;;;;8.77;7.50;;;;;;;2.80;82.79;94091.72;5041564;28;20101;-78
2023/03/02 05:58:16;;;;;;;8.88;7.70;;;;;;;2.89;82.89;94096.22;5041409;28;20631;-78
2023/03/02 06:00:43;;;;;;;9.98;7.82;;;;;;;3.19;82.06;94074.50;5044036;28;20057;-80
2023/03/02 06:03:08;;;;;;;13.07;7.93;;;;;;;3.39;80.83;94074.53;5043430;28;20025;-78
2023/03/02 06:05:34;;;;;;;9.02;7.43;;;;;;;2.94;81.43;94098.09;5045835;28;20060;-79
2023/03/02 06:08:00;;;;;;;11.20;8.10;;;;;;;2.74;82.74;94104.09;5044469;28;20033;-77
2023/03/02 06:10:26;;;;;;;9.88;8.05;;;;;;;3.28;82.33;94108.97;5045733;28;20028;-77
2023/03/02 06:12:51;;;;;;;10.30;8.25;;;;;;;3.29;81.39;94100.81;5045148;28;20166;-78
2023/03/02 06:15:17;;;;;;;9.88;8.00;;;;;;;3.27;80.86;94084.53;5046209;28;20075;-79
2023/03/02 06:17:43;;;;;;;10.88;8.25;;;;;;;2.84;82.20;94088.34;5050120;28;20401;-78
2023/03/02 06:20:09;;;;;;;10.95;8.30;;;;;;;2.52;83.36;94085.84;5056960;28;20037;-78
2023/03/02 06:22:45;;;;;;;14.75;10.13;;;;;;;2.64;84.35;94108.50;5045590;28;20067;-78
2023/03/02 06:25:13;;;;;;;13.65;9.60;;;;;;;2.78;83.41;94093.84;5046898;28;20028;-78
2023/03/02 06:27:40;;;;;;;16.73;10.25;;;;;;;2.29;84.47;94086.28;5043691;28;20040;-78
2023/03/02 06:30:07;;;;;;;11.00;8.75;;;;;;;2.73;83.84;94117.47;5046480;28;20544;-79
2023/03/02 06:32:34;;;;;;;16.02;10.70;;;;;;;2.65;84.42;94110.84;5058874;28;20044;-78
2023/03/02 06:35:00;;;;;;;11.68;9.95;;;;;;;2.88;83.99;94128.03;5043044;28;20040;-77
2023/03/02 06:37:27;;;;;;;13.43;9.27;;;;;;;2.60;84.41;94089.06;5048193;28;20028;-79
2023/03/02 06:39:53;;;;;;;12.60;9.98;;;;;;;2.48;85.40;94124.19;5046718;28;20033;-80
2023/03/02 06:42:19;;;;;;;14.50;10.82;;;;;;;2.52;85.56;94117.38;5044728;28;20040;-79
2023/03/02 06:44:45;;;;;;;15.77;10.43;;;;;;;2.07;86.30;94088.22;5045379;28;20045;-77
2023/03/02 06:47:10;;;;;;;13.88;10.13;;;;;;;2.58;86.29;94106.88;5067361;28;20055;-78
2023/03/02 06:49:35;;;;;;;16.15;10.93;;;;;;;2.29;86.30;94117.78;5056903;28;20040;-80
2023/03/02 06:52:01;;;;;;;15.23;10.75;;;;;;;2.12;86.71;94111.88;5050235;28;20539;-78
2023/03/02 06:54:26;;;;;;;13.85;10.43;;;;;;;1.82;87.90;94101.13;5042904;28;20044;-77
2023/03/02 06:56:52;;;;;;;19.38;11.65;;;;;;;1.86;89.00;94124.03;5046375;28;20040;-79
2023/03/02 06:59:17;;;;;;;17.90;12.52;;;;;;;2.19;88.90;94120.34;5045092;28;20486;-79
2023/03/02 07:01:42;;;;;;;20.25;14.15;;;;;;;1.79;88.40;94101.66;5047589;28;20151;-79
2023/03/02 07:04:08;;;;;;;15.35;11.60;;;;;;;1.88;88.50;94108.84;5044394;28;20138;-76
2023/03/02 07:06:33;;;;;;;24.48;15.10;;;;;;;1.65;89.48;94098.66;5051401;28;20097;-79
2023/03/02 07:09:00;;;;;;;24.55;15.27;;;;;;;1.60;90.09;94103.88;5047772;28;20084;-78
2023/03/02 07:11:25;;;;;;;22.73;12.90;;;;;;;1.75;90.57;94124.19;5043398;28;20032;-79
2023/03/02 07:13:51;;;;;;;28.48;25.17;;;;;;;1.40;90.90;94090.59;5048620;28;20417;-79
2023/03/02 07:16:16;;;;;;;62.28;26.77;;;;;;;1.80;91.52;94105.88;5054969;28;20825;-79
2023/03/02 07:18:42;;;;;;;21.63;12.48;;;;;;;1.90;90.01;94113.84;5046241;28;20037;-79
2023/03/02 07:21:07;;;;;;;26.13;14.63;;;;;;;1.78;89.74;94093.00;5043514;28;20053;-78
2023/03/02 07:23:33;;;;;;;15.63;12.32;;;;;;;1.86;89.56;94100.41;5046040;28;20063;-79
2023/03/02 07:25:58;;;;;;;17.38;12.27;;;;;;;2.03;89.20;94113.41;5046219;28;20029;-78
2023/03/02 07:28:24;;;;;;;18.42;14.38;;;;;;;2.12;89.24;94125.00;5047694;28;20032;-78
2023/03/02 07:30:54;;;;;;;18.38;13.27;;;;;;;2.19;89.46;94122.97;5046257;28;20029;-79
2023/03/02 07:33:20;;;;;;;35.70;15.50;;;;;;;2.15;88.98;94127.13;5051162;28;20033;-79
2023/03/02 07:35:45;;;;;;;21.50;14.05;;;;;;;2.15;88.94;94127.13;5044395;28;20065;-78
2023/03/02 07:38:11;;;;;;;20.98;12.82;;;;;;;2.09;88.53;94112.41;5045644;28;20042;-77
2023/03/02 07:40:43;;;;;;;15.77;11.18;;;;;;;1.91;88.62;94118.06;5050888;28;20033;-78
2023/03/02 07:43:09;;;;;;;17.27;12.50;;;;;;;2.11;88.93;94135.75;5041770;28;20021;-79
2023/03/02 07:45:35;;;;;;;16.90;11.95;;;;;;;2.01;88.53;94105.78;5044331;28;20051;-78
2023/03/02 07:48:01;;;;;;;18.30;11.57;;;;;;;2.37;87.63;94130.41;5045328;28;20029;-78
2023/03/02 07:50:27;;;;;;;16.13;11.18;;;;;;;2.03;87.79;94108.16;5060835;28;20080;-77
2023/03/02 07:52:52;;;;;;;16.90;11.85;;;;;;;2.01;88.59;94105.78;5061753;28;20024;-78
2023/03/02 07:55:17;;;;;;;15.63;11.07;;;;;;;2.11;88.00;94126.03;5043835;28;20091;-79
2023/03/02 07:57:43;;;;;;;18.17;13.13;;;;;;;2.23;88.75;94121.41;5044922;28;20037;-78
2023/03/02 08:00:09;;;;;;;18.58;12.43;;;;;;;2.29;88.35;94132.72;5042419;28;20040;-77
2023/03/02 08:02:34;;;;;;;19.70;11.95;;;;;;;2.45;87.48;94121.28;5044346;28;20588;-78
2023/03/02 08:05:00;;;;;;;15.35;10.95;;;;;;;2.80;86.56;94120.63;5051187;28;20091;-79
2023/03/02 08:07:25;;;;;;;17.23;11.45;;;;;;;2.70;86.32;94116.13;5053722;28;20044;-79
2023/03/02 08:09:50;;;;;;;20.20;13.20;;;;;;;2.33;86.61;94103.09;5044107;28;20036;-78
2023/03/02 08:12:16;;;;;;;23.02;12.75;;;;;;;2.35;87.27;94101.00;5044165;28;20083;-79
2023/03/02 08:14:41;;;;;;;21.88;12.55;;;;;;;2.22;87.28;94092.78;5042158;28;20053;-79
2023/03/02 08:17:07;;;;;;;20.60;13.40;;;;;;;2.20;88.11;94110.63;5043074;28;20520;-77
2023/03/02 08:19:32;;;;;;;16.30;12.18;;;;;;;2.04;88.62;94123.66;5045247;28;20096;-78
2023/03/02 08:21:59;;;;;;;17.35;12.32;;;;;;;1.75;89.54;94090.09;5041498;28;20108;-78
2023/03/02 08:24:25;;;;;;;18.83;13.73;;;;;;;2.03;89.94;94118.66;5044130;28;20057;-77
2023/03/02 08:26:50;;;;;;;19.48;13.07;;;;;;;1.84;89.87;94078.09;5042558;28;20131;-78
2023/03/02 08:29:16;;;;;;;19.58;13.05;;;;;;;2.25;90.28;94116.69;5052194;28;20044;-80
2023/03/02 08:31:41;;;;;;;22.90;11.10;;;;;;;2.39;89.54;94091.59;5044441;28;20608;-80
2023/03/02 08:34:07;;;;;;;19.10;12.85;;;;;;;2.58;89.16;94110.31;5044006;28;20028;-79
2023/03/02 08:36:32;;;;;;;15.40;10.90;;;;;;;2.50;88.90;94098.44;5045679;28;20033;-79
2023/03/02 08:38:57;;;;;;;16.45;11.32;;;;;;;2.32;88.57;94090.22;5039561;28;20056;-78
2023/03/02 08:41:23;;;;;;;16.30;10.88;;;;;;;2.32;88.76;94114.63;5043201;28;20042;-78
2023/03/02 08:43:49;;;;;;;14.48;9.98;;;;;;;2.59;89.00;94103.22;5048766;28;20084;-78
2023/03/02 08:46:18;;;;;;;14.85;10.55;;;;;;;2.39;88.60;94101.28;5046071;28;20078;-79
2023/03/02 08:48:44;;;;;;;11.88;9.10;;;;;;;2.61;88.36;94082.72;5044342;28;20091;-79
2023/03/02 08:51:15;;;;;;;13.25;8.52;;;;;;;2.73;87.75;94083.31;5050141;28;20041;-78
2023/03/02 08:53:46;;;;;;;15.40;10.65;;;;;;;2.63;88.22;94112.16;5060710;28;20018;-77
2023/03/02 08:56:24;;;;;;;15.48;10.55;;;;;;;2.62;89.09;94102.69;5057250;28;20025;-78
2023/03/02 08:58:51;;;;;;;23.08;11.68;;;;;;;2.49;88.92;94110.00;5043767;28;20097;-78
2023/03/02 09:01:27;;;;;;;16.15;10.15;;;;;;;2.29;89.65;94094.16;5044706;28;20029;-79
2023/03/02 09:03:53;;;;;;;15.57;10.57;;;;;;;2.08;89.68;94089.81;5045876;28;20091;-77
2023/03/02 09:06:19;;;;;;;17.02;11.75;;;;;;;2.08;90.37;94081.94;5044270;28;20037;-79
2023/03/02 09:08:45;;;;;;;17.40;11.38;;;;;;;2.41;90.69;94099.97;5043009;28;20036;-79
2023/03/02 09:11:10;;;;;;;15.77;11.23;;;;;;;2.36;90.99;94081.56;5044418;28;20037;-77
2023/03/02 09:13:36;;;;;;;16.55;11.05;;;;;;;2.62;90.47;94068.56;5053962;28;20079;-78
2023/03/02 09:16:01;;;;;;;27.58;11.80;;;;;;;3.04;89.81;94103.38;5046944;28;20077;-77
2023/03/02 09:18:29;;;;;;;14.98;10.65;;;;;;;2.88;89.19;94099.13;5047659;28;20453;-78
2023/03/02 09:20:55;;;;;;;15.90;10.00;;;;;;;2.74;89.30;94098.84;5045187;28;20073;-79
2023/03/02 09:23:21;;;;;;;20.70;11.20;;;;;;;2.50;90.39;94063.50;5045794;28;20047;-78
2023/03/02 09:25:47;;;;;;;14.55;10.68;;;;;;;2.48;90.05;94082.16;5039627;28;20025;-78
2023/03/02 09:28:14;;;;;;;18.52;10.70;;;;;;;2.40;90.99;94071.38;5048487;28;20021;-78
2023/03/02 09:30:40;;;;;;;15.00;10.25;;;;;;;2.87;91.20;94087.03;5046123;28;20048;-80
2023/03/02 09:33:05;;;;;;;13.07;10.00;;;;;;;2.83;90.34;94075.47;5045279;28;20033;-79
2023/03/02 09:35:31;;;;;;;23.98;13.50;;;;;;;2.99;90.60;94092.84;5046319;28;20044;-78
2023/03/02 09:37:57;;;;;;;12.25;8.38;;;;;;;2.87;89.62;94093.09;5044481;28;20049;-78
2023/03/02 09:40:24;;;;;;;11.98;7.20;;;;;;;2.67;88.16;94060.72;5053847;28;20364;-79
2023/03/02 09:43:12;;;;;;;23.77;11.93;;;;;;;2.78;89.17;94073.63;5049406;28;20501;-78
2023/03/02 09:46:05;;;;;;;11.82;8.50;;;;;;;2.70;88.64;94075.94;5049096;28;20045;-79
2023/03/02 09:49:03;;;;;;;15.57;9.90;;;;;;;2.55;88.75;94086.41;5049028;28;20036;-79
2023/03/02 09:51:40;;;;;;;15.48;10.20;;;;;;;2.57;89.14;94082.47;5047245;28;20045;-79
2023/03/02 09:54:12;;;;;;;13.93;9.98;;;;;;;2.79;89.30;94083.06;5050146;28;20511;-79
2023/03/02 09:56:47;;;;;;;15.13;10.40;;;;;;;2.85;88.86;94037.38;5054750;28;20036;-78
2023/03/02 09:59:30;;;;;;;;;;;;;;;3.29;87.58;94084.25;5058115;28;20451;-77
2023/03/02 10:02:14;;;;;;;17.10;12.90;;;;;;;3.39;85.53;94085.06;5048157;28;19916;-78
2023/03/02 10:04:46;;;;;;;22.48;19.10;;;;;;;2.84;86.18;94040.28;5050883;28;20029;-79
2023/03/02 10:07:18;;;;;;;29.80;25.90;;;;;;;3.07;85.46;94060.81;5055632;28;20035;-79
2023/03/02 10:09:44;;;;;;;14.10;12.38;;;;;;;3.03;83.40;94088.69;5058657;28;20042;-80
2023/03/02 10:12:40;;;;;;;10.45;8.02;;;;;;;3.11;83.77;94092.63;5043614;28;20102;-78
2023/03/02 10:15:13;;;;;;;7.53;6.38;;;;;;;3.15;82.96;94064.78;5048562;28;20087;-80
2023/03/02 10:18:12;;;;;;;12.27;9.50;;;;;;;3.76;82.25;94094.56;5046494;28;20034;-78
2023/03/02 10:20:49;;;;;;;11.82;8.75;;;;;;;3.75;80.69;94079.81;5032053;28;20132;-79
2023/03/02 10:23:27;;;;;;;23.23;18.08;;;;;;;3.50;82.43;94098.22;5049499;28;20056;-77
2023/03/02 10:26:18;;;;;;;23.88;15.77;;;;;;;2.86;84.02;94081.00;5046176;28;20037;-77
2023/03/02 10:28:51;;;;;;;20.65;14.88;;;;;;;3.02;83.87;94099.44;5044562;28;20049;-79
2023/03/02 10:31:25;;;;;;;13.27;9.35;;;;;;;2.80;84.56;94100.41;5054438;28;20030;-78
2023/03/02 10:33:50;;;;;;;15.98;9.07;;;;;;;2.65;85.33;94074.09;5062693;28;20041;-77
2023/03/02 10:36:28;;;;;;;16.98;11.07;;;;;;;2.81;85.24;94095.94;5046915;28;20092;-79
2023/03/02 10:38:55;;;;;;;12.10;10.50;;;;;;;2.58;85.49;94091.13;5044328;28;20029;-80
2023/03/02 10:41:56;;;;;;;13.85;10.35;;;;;;;2.43;87.24;94086.59;5043104;28;20721;-77
2023/03/02 10:44:26;;;;;;;15.60;9.57;;;;;;;2.33;86.75;94058.47;5050496;28;20033;-80
2023/03/02 10:46:52;;;;;;;12.48;9.45;;;;;;;2.44;85.88;94070.59;5043261;28;20106;-78
2023/03/02 10:49:35;;;;;;;15.73;9.45;;;;;;;2.45;85.93;94084.53;5041785;28;20075;-80
2023/03/02 10:52:05;;;;;;;12.32;8.98;;;;;;;2.51;86.09;94083.47;5045872;28;20703;-80
2023/03/02 10:54:32;;;;;;;16.92;10.05;;;;;;;2.29;86.44;94081.03;5048351;28;20102;-79
2023/03/02 10:57:03;;;;;;;13.27;9.63;;;;;;;2.40;85.91;94081.88;5049903;28;20101;-78
2023/03/02 10:59:29;;;;;;;11.80;8.77;;;;;;;2.66;85.54;94080.13;5045167;28;20052;-78
2023/03/02 11:01:59;;;;;;;13.98;8.80;;;;;;;2.49;85.71;94070.63;5055908;28;20032;-77
2023/03/02 11:04:24;;;;;;;12.05;8.88;;;;;;;2.54;85.34;94056.72;5059798;28;20017;-78
2023/03/02 11:06:51;;;;;;;13.57;9.98;;;;;;;2.60;84.82;94054.91;5038373;28;20033;-80
2023/03/02 11:09:17;;;;;;;14.57;9.68;;;;;;;2.64;85.08;94037.59;5040500;28;20037;-77
2023/03/02 11:11:51;;;;;;;12.02;8.25;;;;;;;2.73;84.33;94033.41;5041508;28;20517;-77
2023/03/02 11:14:17;;;;;;;11.95;9.02;;;;;;;2.87;83.84;94053.69;5051671;28;20045;-79
2023/03/02 11:16:42;;;;;;;13.90;9.07;;;;;;;2.53;84.10;94028.91;5044941;28;20103;-79
2023/03/02 11:19:16;;;;;;;15.70;9.43;;;;;;;2.85;84.31;94052.34;5048404;28;20119;-77
2023/03/02 11:22:01;;;;;;;13.80;9.97;;;;;;;2.83;84.11;94049.22;5048595;28;20619;-78
2023/03/02 11:24:35;;;;;;;15.85;9.40;;;;;;;2.81;84.12;94043.41;5050113;28;21130;-78
2023/03/02 11:27:06;;;;;;;9.68;7.28;;;;;;;2.46;83.72;94028.31;5047180;28;20820;-78
2023/03/02 11:29:48;;;;;;;9.38;7.63;;;;;;;2.47;84.01;94027.28;5044117;28;20133;-79
2023/03/02 11:32:33;;;;;;;12.18;8.98;;;;;;;2.55;84.27;94047.03;5045967;28;20034;-78
2023/03/02 11:35:24;;;;;;;15.18;8.63;;;;;;;2.57;84.50;94050.16;5045488;28;20048;-76
2023/03/02 11:37:53;;;;;;;9.95;8.02;;;;;;;2.54;83.77;93983.22;5045888;28;20111;-78
2023/03/02 11:40:29;;;;;;;16.33;8.75;;;;;;;2.78;83.40;94041.31;5043582;28;20021;-77
2023/03/02 11:42:56;;;;;;;12.02;9.27;;;;;;;2.75;83.41;94003.22;5052837;28;20037;-78